Time;durP1;ratioP1;P1;durP2;ratioP2;P2;SDS_P1;SDS_P2;PMS_P1;PMS_P2;Temp;Humidity;BMP_temperature;BMP_pressure;BME280_temperature;BME280_humidity;BME280_pressure;Samples;Min_cycle;Max_cycle;Signal;HPM_P1;HPM_P2
2022/03/16 00:07:23;;;;;;;52.30;18.65;;;5.30;99.90;;;;;;20731326;28;20638;-78
2022/03/16 00:17:24;;;;;;;;;;;5.50;99.90;;;;;;20836391;28;20033;-78
2022/03/16 00:27:24;;;;;;;33.83;15.43;;;5.20;99.90;;;;;;20842405;28;20011;-78
2022/03/16 00:37:27;;;;;;;33.00;14.87;;;5.30;99.90;;;;;;20830411;28;20029;-78
2022/03/16 00:47:30;;;;;;;35.15;16.20;;;5.00;99.90;;;;;;20841471;28;20343;-78
2022/03/16 00:57:31;;;;;;;34.75;15.90;;;5.20;99.90;;;;;;20860396;28;20036;-79
2022/03/16 01:07:32;;;;;;;26.73;13.45;;;5.10;99.90;;;;;;20841300;28;20033;-77
2022/03/16 01:17:32;;;;;;;25.97;13.03;;;5.10;99.90;;;;;;20858371;28;20097;-79
2022/03/16 01:27:33;;;;;;;48.63;21.70;;;5.10;99.90;;;;;;20863350;28;20032;-78
2022/03/16 01:37:36;;;;;;;35.40;17.60;;;5.20;99.90;;;;;;20858912;28;20022;-79
2022/03/16 01:47:36;;;;;;;40.17;17.80;;;5.10;99.90;;;;;;20824766;28;20025;-79
2022/03/16 01:57:42;;;;;;;33.47;17.35;;;5.10;99.90;;;;;;20839319;28;20072;-78
2022/03/16 02:07:43;;;;;;;27.92;14.02;;;5.20;99.90;;;;;;20831264;28;20442;-77
2022/03/16 02:17:44;;;;;;;;;;;5.00;99.90;;;;;;20834392;28;20075;-78
2022/03/16 02:27:45;;;;;;;27.25;13.85;;;5.00;99.90;;;;;;20853053;28;19909;-78
2022/03/16 02:37:46;;;;;;;53.25;22.15;;;4.80;99.90;;;;;;20835923;28;20064;-77
2022/03/16 02:47:47;;;;;;;58.03;26.00;;;5.00;99.90;;;;;;20849194;28;20052;-77
2022/03/16 02:57:48;;;;;;;;;;;5.20;99.90;;;;;;20855814;23;20064;-74
2022/03/16 03:07:49;;;;;;;53.40;25.35;;;5.10;99.90;;;;;;20808230;28;19913;-74
2022/03/16 03:17:49;;;;;;;55.80;25.42;;;5.00;99.90;;;;;;20808158;28;20423;-75
2022/03/16 03:27:50;;;;;;;58.55;27.13;;;5.10;99.90;;;;;;20825299;28;20083;-74
2022/03/16 03:37:52;;;;;;;61.83;25.73;;;5.10;99.90;;;;;;20825063;28;20036;-75
2022/03/16 03:47:52;;;;;;;43.70;21.50;;;5.10;99.90;;;;;;20824546;28;20292;-74
2022/03/16 03:57:53;;;;;;;47.10;20.70;;;5.10;99.90;;;;;;20823978;28;20045;-74
2022/03/16 04:07:54;;;;;;;54.27;24.97;;;5.00;99.90;;;;;;20823768;28;20026;-74
2022/03/16 04:17:55;;;;;;;64.77;27.67;;;5.20;99.90;;;;;;20835334;28;20022;-74
2022/03/16 04:27:56;;;;;;;61.67;27.87;;;5.30;99.90;;;;;;20820946;28;20276;-74
2022/03/16 04:37:56;;;;;;;73.73;31.33;;;5.30;99.90;;;;;;20803748;28;20116;-74
2022/03/16 04:47:57;;;;;;;61.15;27.85;;;5.30;99.90;;;;;;20837238;28;20021;-74
2022/03/16 04:58:00;;;;;;;61.37;28.90;;;5.30;99.90;;;;;;20836435;28;20040;-74
2022/03/16 05:08:01;;;;;;;64.72;26.35;;;5.30;99.90;;;;;;20835850;28;20701;-75
2022/03/16 05:18:02;;;;;;;54.55;24.80;;;5.40;99.90;;;;;;20835141;28;20029;-74
2022/03/16 05:28:03;;;;;;;51.70;24.35;;;5.20;99.90;;;;;;20834081;28;20030;-74
2022/03/16 05:38:05;;;;;;;;;;;4.90;99.90;;;;;;20833789;28;20029;-74
2022/03/16 05:48:06;;;;;;;;;;;4.80;99.90;;;;;;20833020;28;19952;-73
2022/03/16 05:58:08;;;;;;;56.92;24.80;;;4.80;99.90;;;;;;20814166;28;20003;-74
2022/03/16 06:08:09;;;;;;;50.45;22.30;;;4.80;99.90;;;;;;20831131;28;20128;-74
2022/03/16 06:18:11;;;;;;;50.13;21.25;;;4.90;99.90;;;;;;20829964;28;20056;-74
2022/03/16 06:28:12;;;;;;;45.22;21.00;;;5.00;99.90;;;;;;20796107;28;20473;-74
2022/03/16 06:38:12;;;;;;;43.38;18.98;;;5.10;99.90;;;;;;20768162;28;20120;-74
2022/03/16 06:48:13;;;;;;;38.05;18.17;;;5.00;99.90;;;;;;20745872;28;20084;-74
2022/03/16 06:58:14;;;;;;;46.38;21.35;;;5.00;99.90;;;;;;20745331;28;20037;-74
2022/03/16 07:08:15;;;;;;;41.50;21.35;;;5.30;99.90;;;;;;20744595;28;20037;-74
2022/03/16 07:18:16;;;;;;;34.30;19.90;;;5.50;99.90;;;;;;20744260;28;20060;-74
2022/03/16 07:28:18;;;;;;;36.38;19.75;;;6.00;99.90;;;;;;20743628;28;20297;-74
2022/03/16 07:38:19;;;;;;;35.17;17.05;;;6.30;99.90;;;;;;20763627;28;20544;-75
2022/03/16 07:48:20;;;;;;;;;;;6.70;99.90;;;;;;20797783;28;20093;-74
2022/03/16 07:58:21;;;;;;;33.43;16.40;;;7.20;99.90;;;;;;20793341;28;20008;-74
2022/03/16 08:08:22;;;;;;;;;;;7.40;99.90;;;;;;20804272;28;20296;-74
2022/03/16 08:18:23;;;;;;;30.08;15.35;;;7.50;99.90;;;;;;20737790;28;19917;-74
2022/03/16 08:28:24;;;;;;;28.97;14.77;;;8.20;99.90;;;;;;20750238;28;20048;-75
2022/03/16 08:38:25;;;;;;;33.63;16.13;;;9.20;99.90;;;;;;20800215;28;20026;-74
2022/03/16 08:48:26;;;;;;;31.80;16.07;;;9.60;99.90;;;;;;20743432;28;20053;-74
2022/03/16 08:58:27;;;;;;;;;;;9.60;99.90;;;;;;20770914;22;20049;-78
2022/03/16 09:08:28;;;;;;;28.23;14.73;;;10.40;99.90;;;;;;20815130;28;20298;-77
2022/03/16 09:18:29;;;;;;;28.83;15.53;;;10.80;99.90;;;;;;20815644;28;20046;-77
2022/03/16 09:28:30;;;;;;;27.50;15.47;;;10.70;99.90;;;;;;20813651;28;20544;-78
2022/03/16 09:38:31;;;;;;;25.53;13.43;;;11.10;99.90;;;;;;20832368;28;20136;-77
2022/03/16 09:48:32;;;;;;;26.53;12.53;;;12.00;99.90;;;;;;20846828;28;20036;-77
2022/03/16 09:58:33;;;;;;;25.30;13.20;;;12.50;99.90;;;;;;20824044;28;20118;-76
2022/03/16 10:08:35;;;;;;;28.37;14.70;;;12.30;99.90;;;;;;20807790;28;20030;-77
2022/03/16 10:18:37;;;;;;;26.85;12.77;;;11.90;99.90;;;;;;20735923;28;20088;-76
2022/03/16 10:28:38;;;;;;;29.10;14.25;;;12.80;99.90;;;;;;20730091;28;20037;-76
2022/03/16 10:38:49;;;;;;;25.48;13.80;;;12.90;99.90;;;;;;20803947;28;20495;-77
2022/03/16 10:49:09;;;;;;;28.67;14.05;;;12.80;99.90;;;;;;20807407;28;20041;-77
2022/03/16 10:59:10;;;;;;;27.98;14.15;;;13.30;99.90;;;;;;20806494;28;20418;-77
2022/03/16 11:09:12;;;;;;;26.47;13.83;;;13.40;99.90;;;;;;20813747;28;20061;-77
2022/03/16 11:19:17;;;;;;;25.95;13.55;;;12.90;99.90;;;;;;20790043;28;20029;-77
2022/03/16 11:30:01;;;;;;;24.10;12.80;;;13.20;99.90;;;;;;20789488;28;20500;-77
2022/03/16 11:40:26;;;;;;;24.02;12.65;;;13.60;99.90;;;;;;20806245;28;20087;-77
2022/03/16 11:50:28;;;;;;;24.15;12.32;;;13.90;99.90;;;;;;20810394;28;20049;-77
2022/03/16 12:00:35;;;;;;;28.02;12.80;;;14.00;99.90;;;;;;20875999;28;20044;-77
2022/03/16 12:10:46;;;;;;;26.05;12.18;;;14.20;99.90;;;;;;20864088;28;20119;-77
2022/03/16 12:20:58;;;;;;;22.15;11.90;;;14.60;99.90;;;;;;20822509;28;20040;-77
2022/03/16 12:31:04;;;;;;;31.85;12.45;;;15.00;99.90;;;;;;20823367;28;20072;-76
2022/03/16 12:51:43;;;;;;;22.80;11.80;;;15.40;99.90;;;;;;20819701;28;20458;-77
2022/03/16 13:01:44;;;;;;;20.25;10.15;;;15.40;99.90;;;;;;20836364;28;20052;-76
2022/03/16 13:11:46;;;;;;;19.00;9.65;;;15.60;99.90;;;;;;20835925;28;20033;-77
2022/03/16 13:21:47;;;;;;;17.60;8.95;;;15.80;99.90;;;;;;20834981;28;20552;-77
2022/03/16 13:31:55;;;;;;;19.67;8.80;;;16.10;99.90;;;;;;20816637;28;20119;-77
2022/03/16 13:42:13;;;;;;;21.77;10.65;;;15.80;99.90;;;;;;20833410;28;20040;-76
2022/03/16 13:52:20;;;;;;;23.27;9.60;;;15.70;99.90;;;;;;20832575;28;20030;-77
2022/03/16 14:02:22;;;;;;;21.58;10.10;;;15.70;99.90;;;;;;20832048;28;20060;-77
2022/03/16 14:12:24;;;;;;;18.65;8.98;;;15.50;99.90;;;;;;20813418;28;20439;-77
2022/03/16 14:22:27;;;;;;;18.77;9.55;;;15.50;99.90;;;;;;20830224;28;20025;-76
2022/03/16 14:32:27;;;;;;;20.90;8.32;;;15.60;99.90;;;;;;20829291;28;20109;-76
2022/03/16 14:42:28;;;;;;;38.17;18.77;;;15.40;99.90;;;;;;20829333;28;20119;-76
2022/03/16 14:52:29;;;;;;;22.07;8.43;;;15.80;99.90;;;;;;20811042;28;20454;-76
2022/03/16 15:02:30;;;;;;;18.13;7.53;;;15.50;99.90;;;;;;20809780;28;20463;-77
2022/03/16 15:12:31;;;;;;;10.67;6.57;;;15.00;99.90;;;;;;20826345;28;20025;-77
2022/03/16 15:22:33;;;;;;;13.15;7.35;;;15.20;99.90;;;;;;20837226;28;20045;-76
2022/03/16 15:32:34;;;;;;;16.37;7.67;;;15.30;99.90;;;;;;20890415;28;20030;-77
2022/03/16 15:42:48;;;;;;;15.73;7.50;;;15.00;99.90;;;;;;20886415;28;20544;-76
2022/03/16 15:52:49;;;;;;;17.63;7.68;;;14.90;99.90;;;;;;20906911;28;20068;-77
2022/03/16 16:02:51;;;;;;;12.77;7.47;;;14.70;99.90;;;;;;20906278;28;20040;-77
2022/03/16 16:12:52;;;;;;;;;;;14.30;99.90;;;;;;20917025;28;20108;-77
2022/03/16 16:22:53;;;;;;;21.25;10.02;;;14.20;99.90;;;;;;20922459;28;19940;-77
2022/03/16 16:32:54;;;;;;;23.20;10.70;;;13.90;99.90;;;;;;20921487;28;20036;-77
2022/03/16 16:43:13;;;;;;;18.53;10.63;;;13.60;99.90;;;;;;20921453;28;20086;-77
2022/03/16 16:53:15;;;;;;;23.58;10.27;;;13.50;99.90;;;;;;20919321;28;20029;-76
2022/03/16 17:03:16;;;;;;;19.90;9.63;;;13.30;99.90;;;;;;20918360;28;20040;-77
2022/03/16 17:13:18;;;;;;;21.97;12.37;;;13.10;99.90;;;;;;20899822;28;20035;-77
2022/03/16 17:23:23;;;;;;;21.53;12.33;;;12.80;99.90;;;;;;20916470;28;20075;-77
2022/03/16 17:33:26;;;;;;;33.67;14.05;;;12.60;99.90;;;;;;20916080;28;20117;-76
2022/03/16 17:53:46;;;;;;;26.67;14.18;;;12.20;99.90;;;;;;20868263;28;20037;-76
2022/03/16 18:03:47;;;;;;;24.33;13.50;;;12.00;99.90;;;;;;20831439;28;20455;-76
2022/03/16 18:13:48;;;;;;;30.93;15.83;;;11.80;99.90;;;;;;20831333;28;20519;-76
2022/03/16 18:23:50;;;;;;;31.70;14.43;;;11.70;99.90;;;;;;20812798;28;20029;-76
2022/03/16 18:33:51;;;;;;;31.02;15.32;;;11.50;99.90;;;;;;20828106;28;20491;-76
2022/03/16 18:43:53;;;;;;;35.27;17.30;;;11.30;99.90;;;;;;20828457;28;20072;-76
2022/03/16 18:53:54;;;;;;;32.20;15.43;;;11.10;99.90;;;;;;20829493;28;20121;-76
2022/03/16 19:03:57;;;;;;;33.13;16.17;;;10.90;99.90;;;;;;20808351;28;20493;-76
2022/03/16 19:13:58;;;;;;;28.58;14.85;;;10.80;99.90;;;;;;20829474;28;20037;-76
2022/03/16 19:23:58;;;;;;;33.47;15.60;;;10.50;99.90;;;;;;20825434;28;20080;-76
2022/03/16 19:33:59;;;;;;;29.40;15.03;;;10.40;99.90;;;;;;20824500;28;20524;-76
2022/03/16 19:44:02;;;;;;;31.93;16.17;;;10.30;99.90;;;;;;20834299;28;20025;-76
2022/03/16 19:54:03;;;;;;;33.35;16.40;;;10.10;99.90;;;;;;20833293;28;20076;-76
2022/03/16 20:04:05;;;;;;;34.93;16.97;;;10.00;99.90;;;;;;20867149;28;20037;-76
2022/03/16 20:14:06;;;;;;;32.72;15.95;;;9.90;99.90;;;;;;20864376;28;20584;-76
2022/03/16 20:24:07;;;;;;;34.17;17.73;;;9.70;99.90;;;;;;20839960;28;20116;-77
2022/03/16 20:34:09;;;;;;;41.50;18.17;;;9.30;99.90;;;;;;20876095;28;20041;-75
2022/03/16 20:44:09;;;;;;;35.17;17.00;;;9.20;99.90;;;;;;20883015;28;20021;-78
2022/03/16 20:54:10;;;;;;;36.73;17.33;;;9.20;99.90;;;;;;20875683;28;20041;-78
2022/03/16 21:04:11;;;;;;;39.07;17.87;;;9.20;99.90;;;;;;20813945;22;20052;-75
2022/03/16 21:14:12;;;;;;;47.60;19.20;;;9.20;99.90;;;;;;20695175;28;20547;-74
2022/03/16 21:24:13;;;;;;;39.13;18.53;;;9.00;99.90;;;;;;20671887;28;20057;-74
2022/03/16 21:34:14;;;;;;;34.57;16.87;;;8.90;99.90;;;;;;20671001;28;20752;-74
2022/03/16 21:54:22;;;;;;;38.92;16.73;;;8.70;99.90;;;;;;20670003;28;20072;-74
2022/03/16 22:04:23;;;;;;;35.73;17.10;;;8.70;99.90;;;;;;20721453;28;20038;-74
2022/03/16 22:14:24;;;;;;;;;;;8.60;99.90;;;;;;20719883;28;20049;-74
2022/03/16 22:24:25;;;;;;;35.58;16.92;;;8.30;99.90;;;;;;20728418;28;19968;-75
2022/03/16 22:34:25;;;;;;;41.23;17.67;;;8.40;99.90;;;;;;20709521;28;20034;-76
2022/03/16 22:44:26;;;;;;;37.50;17.87;;;8.40;99.90;;;;;;20708909;28;20045;-76
2022/03/16 22:54:27;;;;;;;34.90;15.60;;;8.40;99.90;;;;;;20726149;28;20092;-76
2022/03/16 23:04:28;;;;;;;33.27;16.63;;;8.20;99.90;;;;;;20724437;28;20037;-76
2022/03/16 23:14:30;;;;;;;28.73;14.73;;;8.10;99.90;;;;;;20729357;28;20034;-75
2022/03/16 23:24:30;;;;;;;;;;;8.10;99.90;;;;;;20744088;28;20030;-75
2022/03/16 23:34:31;;;;;;;30.80;14.27;;;7.90;99.90;;;;;;20742208;28;19921;-75
2022/03/16 23:44:32;;;;;;;29.20;13.97;;;7.80;99.90;;;;;;20743009;28;20480;-75
2022/03/16 23:54:33;;;;;;;27.90;14.03;;;7.80;99.90;;;;;;20742450;28;20112;-75
